Date,TemperatureHighF,TemperatureAvgF,TemperatureLowF,DewpointHighF,DewpointAvgF,DewpointLowF,HumidityHigh,HumidityAvg,HumidityLow,PressureMaxIn,PressureMinIn,WindSpeedMaxMPH,WindSpeedAvgMPH,GustSpeedMaxMPH,PrecipitationSumIn
2013-11-1,72,64,47,59,52,38,83,65,44,29.70,29.50,24,7,24,0.28
2013-11-2,61,49,41,48,39,32,83,68,44,29.98,29.69,18,2,18,0.00
2013-11-3,54,42,32,42,33,25,82,70,53,30.27,29.97,14,1,14,0.00
2013-11-4,63,43,28,45,32,22,84,67,41,30.39,30.26,6,0,6,0.00
2013-11-5,65,47,34,45,35,26,81,65,37,30.42,30.25,5,0,5,0.00
2013-11-6,73,57,34,58,45,26,84,66,47,30.28,29.94,20,3,20,0.00
2013-11-7,60,50,31,53,42,24,88,75,61,30.20,29.88,15,4,15,0.14
2013-11-8,52,38,26,36,28,21,83,70,44,30.32,30.20,12,1,12,0.00
2013-11-9,56,38,24,40,26,17,81,64,41,30.28,30.16,10,1,10,0.00
2013-11-10,62,42,28,43,30,20,80,62,39,30.26,30.13,18,3,18,0.00
2013-11-11,63,39,22,40,24,15,79,58,25,30.29,30.09,12,1,12,0.00
2013-11-12,48,36,21,39,27,12,81,70,61,30.52,30.02,18,4,18,0.00
2013-11-13,39,26,17,26,17,10,78,68,55,30.61,30.44,14,1,14,0.00
2013-11-14,56,30,15,34,18,9,79,62,35,30.47,30.24,7,0,7,0.00
2013-11-15,50,37,21,41,29,11,85,74,63,30.28,30.10,9,0,9,0.08
2013-11-16,69,51,40,59,45,36,90,81,66,30.14,29.99,9,0,9,0.02
2013-11-17,70,61,47,60,53,42,85,76,65,30.00,29.69,18,3,18,0.05
2013-11-18,66,54,34,59,42,23,86,65,36,30.06,29.67,21,4,21,0.01
2013-11-19,49,37,25,33,26,17,79,64,46,30.18,30.06,13,2,13,0.00
2013-11-20,56,40,26,37,27,19,78,61,40,30.27,30.11,18,1,18,0.00
2013-11-21,68,49,29,52,39,21,80,69,56,30.34,30.18,23,4,23,0.00
2013-11-22,60,54,45,53,49,40,90,83,78,30.21,30.07,7,1,7,0.29
2013-11-23,56,45,29,53,40,22,90,83,70,30.29,30.06,17,3,17,0.13
2013-11-24,32,26,18,23,15,9,73,63,48,30.53,30.29,13,2,13,0.00
2013-11-25,38,29,18,27,19,9,73,66,58,30.45,30.13,5,0,5,0.00
2013-11-26,46,42,36,43,37,27,90,84,72,30.13,29.63,13,1,13,1.77
2013-11-27,42,31,25,39,27,20,90,86,77,30.24,29.65,16,2,16,0.24
2013-11-28,37,25,15,29,20,10,85,79,71,30.46,30.23,4,0,4,0.07
2013-11-29,46,29,17,35,22,12,85,76,61,30.57,30.44,9,0,9,0.00
2013-11-30,53,32,20,40,24,14,82,73,58,30.50,30.25,0,0,0,0.00